sensor_id;sensor_type;location;lat;lon;timestamp;temperature;humidity
2409;DHT22;8463;48.094;7.970;2023-12-07T00:01:21;3.20;1.00
2409;DHT22;8463;48.094;7.970;2023-12-07T00:03:47;3.20;1.00
2409;DHT22;8463;48.094;7.970;2023-12-07T00:06:12;3.20;1.00
2409;DHT22;8463;48.094;7.970;2023-12-07T00:08:38;3.20;1.00
2409;DHT22;8463;48.094;7.970;2023-12-07T00:11:04;3.20;1.00
2409;DHT22;8463;48.094;7.970;2023-12-07T00:13:29;3.30;1.00
2409;DHT22;8463;48.094;7.970;2023-12-07T00:15:55;3.30;1.00
2409;DHT22;8463;48.094;7.970;2023-12-07T00:18:20;3.20;1.00
2409;DHT22;8463;48.094;7.970;2023-12-07T00:20:46;3.20;1.00
2409;DHT22;8463;48.094;7.970;2023-12-07T00:23:12;3.20;1.00
2409;DHT22;8463;48.094;7.970;2023-12-07T00:25:40;3.20;1.00
2409;DHT22;8463;48.094;7.970;2023-12-07T00:28:05;3.20;1.00
2409;DHT22;8463;48.094;7.970;2023-12-07T00:30:31;3.20;1.00
2409;DHT22;8463;48.094;7.970;2023-12-07T00:32:57;3.20;1.00
2409;DHT22;8463;48.094;7.970;2023-12-07T00:35:23;3.10;1.00
2409;DHT22;8463;48.094;7.970;2023-12-07T00:37:48;3.10;1.00
2409;DHT22;8463;48.094;7.970;2023-12-07T00:40:14;3.20;1.00
2409;DHT22;8463;48.094;7.970;2023-12-07T00:42:40;3.20;1.00
2409;DHT22;8463;48.094;7.970;2023-12-07T00:45:06;3.00;1.00
2409;DHT22;8463;48.094;7.970;2023-12-07T00:47:32;2.90;1.00
2409;DHT22;8463;48.094;7.970;2023-12-07T00:49:57;2.90;1.00
2409;DHT22;8463;48.094;7.970;2023-12-07T00:52:23;2.90;1.00
2409;DHT22;8463;48.094;7.970;2023-12-07T00:54:48;2.70;1.00
2409;DHT22;8463;48.094;7.970;2023-12-07T00:57:14;2.60;1.00
2409;DHT22;8463;48.094;7.970;2023-12-07T00:59:40;2.60;1.00
2409;DHT22;8463;48.094;7.970;2023-12-07T01:02:06;2.70;1.00
2409;DHT22;8463;48.094;7.970;2023-12-07T01:04:32;2.80;1.00
2409;DHT22;8463;48.094;7.970;2023-12-07T01:06:58;2.80;1.00
2409;DHT22;8463;48.094;7.970;2023-12-07T01:09:25;2.80;1.00
2409;DHT22;8463;48.094;7.970;2023-12-07T01:11:51;2.90;1.00
2409;DHT22;8463;48.094;7.970;2023-12-07T01:14:17;2.90;1.00
2409;DHT22;8463;48.094;7.970;2023-12-07T01:16:44;2.90;1.00
2409;DHT22;8463;48.094;7.970;2023-12-07T01:19:10;2.80;1.00
2409;DHT22;8463;48.094;7.970;2023-12-07T01:21:42;2.70;1.00
2409;DHT22;8463;48.094;7.970;2023-12-07T01:24:08;2.70;1.00
2409;DHT22;8463;48.094;7.970;2023-12-07T01:26:34;2.70;1.00
2409;DHT22;8463;48.094;7.970;2023-12-07T01:28:59;2.70;1.00
2409;DHT22;8463;48.094;7.970;2023-12-07T01:31:25;2.80;1.00
2409;DHT22;8463;48.094;7.970;2023-12-07T01:33:51;2.80;1.00
2409;DHT22;8463;48.094;7.970;2023-12-07T01:36:16;2.80;1.00
2409;DHT22;8463;48.094;7.970;2023-12-07T01:38:42;2.80;1.00
2409;DHT22;8463;48.094;7.970;2023-12-07T01:41:09;2.80;1.00
2409;DHT22;8463;48.094;7.970;2023-12-07T01:43:34;2.80;1.00
2409;DHT22;8463;48.094;7.970;2023-12-07T01:46:00;2.80;1.00
2409;DHT22;8463;48.094;7.970;2023-12-07T01:48:28;2.80;1.00
2409;DHT22;8463;48.094;7.970;2023-12-07T01:50:56;2.70;1.00
2409;DHT22;8463;48.094;7.970;2023-12-07T01:53:23;2.70;1.00
2409;DHT22;8463;48.094;7.970;2023-12-07T01:55:51;2.60;1.00
2409;DHT22;8463;48.094;7.970;2023-12-07T01:58:18;2.60;1.00
2409;DHT22;8463;48.094;7.970;2023-12-07T02:00:45;2.60;1.00
2409;DHT22;8463;48.094;7.970;2023-12-07T02:03:11;2.60;1.00
2409;DHT22;8463;48.094;7.970;2023-12-07T02:05:37;2.50;1.00
2409;DHT22;8463;48.094;7.970;2023-12-07T02:08:05;2.50;1.00
2409;DHT22;8463;48.094;7.970;2023-12-07T02:10:30;2.50;1.00
2409;DHT22;8463;48.094;7.970;2023-12-07T02:12:56;2.50;1.00
2409;DHT22;8463;48.094;7.970;2023-12-07T02:15:22;2.40;1.00
2409;DHT22;8463;48.094;7.970;2023-12-07T02:21:10;2.30;1.00
2409;DHT22;8463;48.094;7.970;2023-12-07T02:23:32;2.20;1.00
2409;DHT22;8463;48.094;7.970;2023-12-07T02:26:03;2.30;1.00
2409;DHT22;8463;48.094;7.970;2023-12-07T02:28:28;2.20;1.00
2409;DHT22;8463;48.094;7.970;2023-12-07T02:30:54;2.20;1.00
2409;DHT22;8463;48.094;7.970;2023-12-07T02:33:20;2.20;1.00
2409;DHT22;8463;48.094;7.970;2023-12-07T02:35:46;2.20;1.00
2409;DHT22;8463;48.094;7.970;2023-12-07T02:38:12;2.10;1.00
2409;DHT22;8463;48.094;7.970;2023-12-07T02:40:39;2.00;1.00
2409;DHT22;8463;48.094;7.970;2023-12-07T02:43:06;1.90;1.00
2409;DHT22;8463;48.094;7.970;2023-12-07T02:45:33;1.90;1.00
2409;DHT22;8463;48.094;7.970;2023-12-07T02:47:59;1.80;1.00
2409;DHT22;8463;48.094;7.970;2023-12-07T02:50:25;1.80;1.00
2409;DHT22;8463;48.094;7.970;2023-12-07T02:52:50;1.70;1.00
2409;DHT22;8463;48.094;7.970;2023-12-07T02:55:16;1.70;1.00
2409;DHT22;8463;48.094;7.970;2023-12-07T02:57:45;1.70;1.00
2409;DHT22;8463;48.094;7.970;2023-12-07T03:00:10;1.70;1.00
2409;DHT22;8463;48.094;7.970;2023-12-07T03:02:39;1.60;1.00
2409;DHT22;8463;48.094;7.970;2023-12-07T03:05:06;1.60;1.00
2409;DHT22;8463;48.094;7.970;2023-12-07T03:07:32;1.50;1.00
2409;DHT22;8463;48.094;7.970;2023-12-07T03:10:00;1.50;1.00
2409;DHT22;8463;48.094;7.970;2023-12-07T03:12:26;1.40;1.00
2409;DHT22;8463;48.094;7.970;2023-12-07T03:14:51;1.40;1.00
2409;DHT22;8463;48.094;7.970;2023-12-07T03:17:17;1.30;1.00
2409;DHT22;8463;48.094;7.970;2023-12-07T03:19:43;1.30;1.00
2409;DHT22;8463;48.094;7.970;2023-12-07T03:22:08;1.30;1.00
2409;DHT22;8463;48.094;7.970;2023-12-07T03:24:35;1.30;1.00
2409;DHT22;8463;48.094;7.970;2023-12-07T03:27:01;1.30;1.00
2409;DHT22;8463;48.094;7.970;2023-12-07T03:29:27;1.30;1.00
2409;DHT22;8463;48.094;7.970;2023-12-07T03:31:55;1.30;1.00
2409;DHT22;8463;48.094;7.970;2023-12-07T03:34:20;1.30;1.00
2409;DHT22;8463;48.094;7.970;2023-12-07T03:36:48;1.30;1.00
2409;DHT22;8463;48.094;7.970;2023-12-07T03:39:15;1.40;1.00
2409;DHT22;8463;48.094;7.970;2023-12-07T03:41:41;1.30;1.00
2409;DHT22;8463;48.094;7.970;2023-12-07T03:44:07;1.30;1.00
2409;DHT22;8463;48.094;7.970;2023-12-07T03:46:33;1.30;1.00
2409;DHT22;8463;48.094;7.970;2023-12-07T03:48:58;1.30;1.00
2409;DHT22;8463;48.094;7.970;2023-12-07T03:51:26;1.30;1.00
2409;DHT22;8463;48.094;7.970;2023-12-07T03:53:52;1.30;1.00
2409;DHT22;8463;48.094;7.970;2023-12-07T03:58:50;1.30;1.00
2409;DHT22;8463;48.094;7.970;2023-12-07T04:01:16;1.30;1.00
2409;DHT22;8463;48.094;7.970;2023-12-07T04:03:41;1.20;1.00
2409;DHT22;8463;48.094;7.970;2023-12-07T04:06:07;1.20;1.00
2409;DHT22;8463;48.094;7.970;2023-12-07T04:08:33;1.10;1.00
2409;DHT22;8463;48.094;7.970;2023-12-07T04:10:59;1.20;1.00
2409;DHT22;8463;48.094;7.970;2023-12-07T04:13:24;1.10;1.00
2409;DHT22;8463;48.094;7.970;2023-12-07T04:15:50;1.10;1.00
2409;DHT22;8463;48.094;7.970;2023-12-07T04:18:15;1.10;1.00
2409;DHT22;8463;48.094;7.970;2023-12-07T04:20:41;1.00;1.00
2409;DHT22;8463;48.094;7.970;2023-12-07T04:23:07;1.00;1.00
2409;DHT22;8463;48.094;7.970;2023-12-07T04:25:32;1.00;1.00
2409;DHT22;8463;48.094;7.970;2023-12-07T04:27:59;1.00;1.00
2409;DHT22;8463;48.094;7.970;2023-12-07T04:30:24;0.90;1.00
2409;DHT22;8463;48.094;7.970;2023-12-07T04:32:50;0.90;1.00
2409;DHT22;8463;48.094;7.970;2023-12-07T04:35:18;0.90;1.00
2409;DHT22;8463;48.094;7.970;2023-12-07T04:37:44;0.80;1.00
2409;DHT22;8463;48.094;7.970;2023-12-07T04:40:10;0.80;1.00
2409;DHT22;8463;48.094;7.970;2023-12-07T04:42:36;0.80;1.00
2409;DHT22;8463;48.094;7.970;2023-12-07T04:45:04;0.80;1.00
2409;DHT22;8463;48.094;7.970;2023-12-07T04:47:32;0.80;1.00
2409;DHT22;8463;48.094;7.970;2023-12-07T04:49:58;0.80;1.00
2409;DHT22;8463;48.094;7.970;2023-12-07T04:52:24;0.80;1.00
2409;DHT22;8463;48.094;7.970;2023-12-07T04:54:49;0.80;1.00
2409;DHT22;8463;48.094;7.970;2023-12-07T04:57:15;0.80;1.00
2409;DHT22;8463;48.094;7.970;2023-12-07T04:59:41;0.90;1.00
2409;DHT22;8463;48.094;7.970;2023-12-07T05:02:06;0.90;1.00
2409;DHT22;8463;48.094;7.970;2023-12-07T05:04:34;0.90;1.00
2409;DHT22;8463;48.094;7.970;2023-12-07T05:07:02;0.80;1.00
2409;DHT22;8463;48.094;7.970;2023-12-07T05:09:29;0.90;1.00
2409;DHT22;8463;48.094;7.970;2023-12-07T05:11:56;0.90;1.00
2409;DHT22;8463;48.094;7.970;2023-12-07T05:14:22;0.80;1.00
2409;DHT22;8463;48.094;7.970;2023-12-07T05:16:48;0.80;1.00
2409;DHT22;8463;48.094;7.970;2023-12-07T05:19:27;0.80;1.00
2409;DHT22;8463;48.094;7.970;2023-12-07T05:21:52;0.80;1.00
2409;DHT22;8463;48.094;7.970;2023-12-07T05:24:18;0.80;1.00
2409;DHT22;8463;48.094;7.970;2023-12-07T05:26:45;0.70;1.00
2409;DHT22;8463;48.094;7.970;2023-12-07T05:29:14;0.70;1.00
2409;DHT22;8463;48.094;7.970;2023-12-07T05:31:43;0.70;1.00
2409;DHT22;8463;48.094;7.970;2023-12-07T05:34:09;0.70;1.00
2409;DHT22;8463;48.094;7.970;2023-12-07T05:36:37;0.60;1.00
2409;DHT22;8463;48.094;7.970;2023-12-07T05:39:02;0.60;1.00
2409;DHT22;8463;48.094;7.970;2023-12-07T05:41:28;0.60;1.00
2409;DHT22;8463;48.094;7.970;2023-12-07T05:43:56;0.60;1.00
2409;DHT22;8463;48.094;7.970;2023-12-07T05:46:22;0.50;1.00
2409;DHT22;8463;48.094;7.970;2023-12-07T05:48:47;0.50;1.00
2409;DHT22;8463;48.094;7.970;2023-12-07T05:51:15;0.50;1.00
2409;DHT22;8463;48.094;7.970;2023-12-07T05:53:41;0.50;1.00
2409;DHT22;8463;48.094;7.970;2023-12-07T05:56:07;0.50;1.00
2409;DHT22;8463;48.094;7.970;2023-12-07T05:58:32;0.50;1.00
2409;DHT22;8463;48.094;7.970;2023-12-07T06:00:59;0.50;1.00
2409;DHT22;8463;48.094;7.970;2023-12-07T06:03:25;0.50;1.00
2409;DHT22;8463;48.094;7.970;2023-12-07T06:05:51;0.50;1.00
2409;DHT22;8463;48.094;7.970;2023-12-07T06:08:17;0.40;1.00
2409;DHT22;8463;48.094;7.970;2023-12-07T06:10:42;0.50;1.00
2409;DHT22;8463;48.094;7.970;2023-12-07T06:13:08;0.50;1.00
2409;DHT22;8463;48.094;7.970;2023-12-07T06:15:34;0.50;1.00
2409;DHT22;8463;48.094;7.970;2023-12-07T06:17:59;0.50;1.00
2409;DHT22;8463;48.094;7.970;2023-12-07T06:20:25;0.50;1.00
2409;DHT22;8463;48.094;7.970;2023-12-07T06:22:52;0.60;1.00
2409;DHT22;8463;48.094;7.970;2023-12-07T06:25:17;0.50;1.00
2409;DHT22;8463;48.094;7.970;2023-12-07T06:27:43;0.50;1.00
2409;DHT22;8463;48.094;7.970;2023-12-07T06:30:10;0.50;1.00
2409;DHT22;8463;48.094;7.970;2023-12-07T06:32:36;0.50;1.00
2409;DHT22;8463;48.094;7.970;2023-12-07T06:35:05;0.50;1.00
2409;DHT22;8463;48.094;7.970;2023-12-07T06:37:31;0.50;1.00
2409;DHT22;8463;48.094;7.970;2023-12-07T06:39:57;0.50;1.00
2409;DHT22;8463;48.094;7.970;2023-12-07T06:42:24;0.50;1.00
2409;DHT22;8463;48.094;7.970;2023-12-07T06:44:49;0.50;1.00
2409;DHT22;8463;48.094;7.970;2023-12-07T06:47:15;0.50;1.00
2409;DHT22;8463;48.094;7.970;2023-12-07T06:49:41;0.50;1.00
2409;DHT22;8463;48.094;7.970;2023-12-07T06:52:07;0.50;1.00
2409;DHT22;8463;48.094;7.970;2023-12-07T06:54:33;0.50;1.00
2409;DHT22;8463;48.094;7.970;2023-12-07T06:57:01;0.50;1.00
2409;DHT22;8463;48.094;7.970;2023-12-07T06:59:27;0.40;1.00
2409;DHT22;8463;48.094;7.970;2023-12-07T07:01:52;0.50;1.00
2409;DHT22;8463;48.094;7.970;2023-12-07T07:04:18;0.70;1.00
2409;DHT22;8463;48.094;7.970;2023-12-07T07:06:44;2.00;1.00
2409;DHT22;8463;48.094;7.970;2023-12-07T07:09:10;2.60;1.00
2409;DHT22;8463;48.094;7.970;2023-12-07T07:11:35;2.10;1.00
2409;DHT22;8463;48.094;7.970;2023-12-07T07:14:02;1.70;1.00
2409;DHT22;8463;48.094;7.970;2023-12-07T07:16:28;1.30;1.00
2409;DHT22;8463;48.094;7.970;2023-12-07T07:18:53;1.10;1.00
2409;DHT22;8463;48.094;7.970;2023-12-07T07:21:19;1.00;1.00
2409;DHT22;8463;48.094;7.970;2023-12-07T07:23:45;0.90;1.00
2409;DHT22;8463;48.094;7.970;2023-12-07T07:26:11;0.90;1.00
2409;DHT22;8463;48.094;7.970;2023-12-07T07:28:37;0.80;1.00
2409;DHT22;8463;48.094;7.970;2023-12-07T07:31:02;0.80;1.00
2409;DHT22;8463;48.094;7.970;2023-12-07T07:33:28;0.70;1.00
2409;DHT22;8463;48.094;7.970;2023-12-07T07:35:54;0.70;1.00
2409;DHT22;8463;48.094;7.970;2023-12-07T07:38:20;0.60;1.00
2409;DHT22;8463;48.094;7.970;2023-12-07T07:40:46;0.70;1.00
2409;DHT22;8463;48.094;7.970;2023-12-07T07:43:14;0.70;1.00
2409;DHT22;8463;48.094;7.970;2023-12-07T07:45:39;0.60;1.00
2409;DHT22;8463;48.094;7.970;2023-12-07T07:48:05;0.60;1.00
2409;DHT22;8463;48.094;7.970;2023-12-07T07:50:33;0.70;1.00
2409;DHT22;8463;48.094;7.970;2023-12-07T07:53:00;0.70;1.00
2409;DHT22;8463;48.094;7.970;2023-12-07T07:55:27;0.70;1.00
2409;DHT22;8463;48.094;7.970;2023-12-07T07:57:52;0.70;1.00
2409;DHT22;8463;48.094;7.970;2023-12-07T08:00:18;0.70;1.00
2409;DHT22;8463;48.094;7.970;2023-12-07T08:02:44;0.70;1.00
2409;DHT22;8463;48.094;7.970;2023-12-07T08:05:10;0.80;1.00
2409;DHT22;8463;48.094;7.970;2023-12-07T08:07:36;0.90;1.00
2409;DHT22;8463;48.094;7.970;2023-12-07T08:10:02;0.90;1.00
2409;DHT22;8463;48.094;7.970;2023-12-07T08:12:29;1.00;1.00
2409;DHT22;8463;48.094;7.970;2023-12-07T08:14:54;1.00;1.00
2409;DHT22;8463;48.094;7.970;2023-12-07T08:17:20;1.00;1.00
2409;DHT22;8463;48.094;7.970;2023-12-07T08:19:46;1.00;1.00
2409;DHT22;8463;48.094;7.970;2023-12-07T08:22:12;0.90;1.00
2409;DHT22;8463;48.094;7.970;2023-12-07T08:24:39;0.90;1.00
2409;DHT22;8463;48.094;7.970;2023-12-07T08:27:07;1.00;1.00
2409;DHT22;8463;48.094;7.970;2023-12-07T08:29:33;1.00;1.00
2409;DHT22;8463;48.094;7.970;2023-12-07T08:31:59;1.00;1.00
2409;DHT22;8463;48.094;7.970;2023-12-07T08:34:25;1.10;1.00
2409;DHT22;8463;48.094;7.970;2023-12-07T08:36:51;1.10;1.00
2409;DHT22;8463;48.094;7.970;2023-12-07T08:39:17;1.20;1.00
2409;DHT22;8463;48.094;7.970;2023-12-07T08:41:45;1.30;1.00
2409;DHT22;8463;48.094;7.970;2023-12-07T08:44:10;1.30;1.00
2409;DHT22;8463;48.094;7.970;2023-12-07T08:46:36;1.40;1.00
2409;DHT22;8463;48.094;7.970;2023-12-07T08:49:02;1.50;1.00
2409;DHT22;8463;48.094;7.970;2023-12-07T08:51:28;1.50;1.00
2409;DHT22;8463;48.094;7.970;2023-12-07T08:53:54;1.50;1.00
2409;DHT22;8463;48.094;7.970;2023-12-07T08:56:20;1.50;1.00
2409;DHT22;8463;48.094;7.970;2023-12-07T08:58:45;1.50;1.00
2409;DHT22;8463;48.094;7.970;2023-12-07T09:01:11;1.40;1.00
2409;DHT22;8463;48.094;7.970;2023-12-07T09:03:37;1.50;1.00
2409;DHT22;8463;48.094;7.970;2023-12-07T09:06:03;1.50;1.00
2409;DHT22;8463;48.094;7.970;2023-12-07T09:08:29;1.50;1.00
2409;DHT22;8463;48.094;7.970;2023-12-07T09:10:54;1.60;1.00
2409;DHT22;8463;48.094;7.970;2023-12-07T09:13:20;1.70;1.00
2409;DHT22;8463;48.094;7.970;2023-12-07T09:15:46;1.90;1.00
2409;DHT22;8463;48.094;7.970;2023-12-07T09:18:11;2.00;1.00
2409;DHT22;8463;48.094;7.970;2023-12-07T09:20:39;2.10;1.00
2409;DHT22;8463;48.094;7.970;2023-12-07T09:23:13;2.20;1.00
2409;DHT22;8463;48.094;7.970;2023-12-07T09:25:42;2.30;1.00
2409;DHT22;8463;48.094;7.970;2023-12-07T09:28:10;2.50;1.00
2409;DHT22;8463;48.094;7.970;2023-12-07T09:30:37;2.80;1.00
2409;DHT22;8463;48.094;7.970;2023-12-07T09:33:02;3.00;1.00
2409;DHT22;8463;48.094;7.970;2023-12-07T09:35:30;3.20;1.00
2409;DHT22;8463;48.094;7.970;2023-12-07T09:37:56;3.40;1.00
2409;DHT22;8463;48.094;7.970;2023-12-07T09:40:22;3.50;1.00
2409;DHT22;8463;48.094;7.970;2023-12-07T09:42:50;3.60;1.00
2409;DHT22;8463;48.094;7.970;2023-12-07T09:45:17;3.50;1.00
2409;DHT22;8463;48.094;7.970;2023-12-07T09:47:48;3.70;1.00
2409;DHT22;8463;48.094;7.970;2023-12-07T09:50:19;3.80;1.00
2409;DHT22;8463;48.094;7.970;2023-12-07T09:52:48;4.00;1.00
2409;DHT22;8463;48.094;7.970;2023-12-07T09:55:16;4.40;1.00
2409;DHT22;8463;48.094;7.970;2023-12-07T09:57:43;4.60;1.00
2409;DHT22;8463;48.094;7.970;2023-12-07T10:00:10;4.90;1.00
2409;DHT22;8463;48.094;7.970;2023-12-07T10:02:37;5.10;1.00
2409;DHT22;8463;48.094;7.970;2023-12-07T10:05:07;5.30;1.00
2409;DHT22;8463;48.094;7.970;2023-12-07T10:07:39;5.40;1.00
2409;DHT22;8463;48.094;7.970;2023-12-07T10:10:05;5.50;1.00
2409;DHT22;8463;48.094;7.970;2023-12-07T10:12:35;5.10;1.00
2409;DHT22;8463;48.094;7.970;2023-12-07T10:15:11;5.00;1.00
2409;DHT22;8463;48.094;7.970;2023-12-07T10:17:54;4.80;1.00
2409;DHT22;8463;48.094;7.970;2023-12-07T10:20:25;4.90;1.00
2409;DHT22;8463;48.094;7.970;2023-12-07T10:23:07;4.80;1.00
2409;DHT22;8463;48.094;7.970;2023-12-07T10:28:03;4.60;1.00
2409;DHT22;8463;48.094;7.970;2023-12-07T10:30:37;4.70;1.00
2409;DHT22;8463;48.094;7.970;2023-12-07T10:33:07;5.00;1.00
2409;DHT22;8463;48.094;7.970;2023-12-07T10:35:32;5.20;1.00
2409;DHT22;8463;48.094;7.970;2023-12-07T10:37:58;4.80;1.00
2409;DHT22;8463;48.094;7.970;2023-12-07T10:40:25;4.70;1.00
2409;DHT22;8463;48.094;7.970;2023-12-07T10:42:57;4.30;1.00
2409;DHT22;8463;48.094;7.970;2023-12-07T10:45:29;3.90;1.00
2409;DHT22;8463;48.094;7.970;2023-12-07T10:48:02;4.00;1.00
2409;DHT22;8463;48.094;7.970;2023-12-07T10:50:31;4.30;1.00
2409;DHT22;8463;48.094;7.970;2023-12-07T10:52:59;4.50;1.00
2409;DHT22;8463;48.094;7.970;2023-12-07T10:55:30;4.50;1.00
2409;DHT22;8463;48.094;7.970;2023-12-07T10:58:00;4.60;1.00
2409;DHT22;8463;48.094;7.970;2023-12-07T11:00:29;4.70;1.00
2409;DHT22;8463;48.094;7.970;2023-12-07T11:02:55;4.80;1.00
2409;DHT22;8463;48.094;7.970;2023-12-07T11:05:21;5.00;1.00
2409;DHT22;8463;48.094;7.970;2023-12-07T11:07:57;5.10;1.00
2409;DHT22;8463;48.094;7.970;2023-12-07T11:10:34;5.20;1.00
2409;DHT22;8463;48.094;7.970;2023-12-07T11:13:22;5.20;1.00
2409;DHT22;8463;48.094;7.970;2023-12-07T11:15:48;4.90;1.00
2409;DHT22;8463;48.094;7.970;2023-12-07T11:18:13;4.90;1.00
2409;DHT22;8463;48.094;7.970;2023-12-07T11:20:46;4.90;1.00
2409;DHT22;8463;48.094;7.970;2023-12-07T11:23:18;5.70;1.00
2409;DHT22;8463;48.094;7.970;2023-12-07T11:25:47;5.50;1.00
2409;DHT22;8463;48.094;7.970;2023-12-07T11:28:14;7.30;1.00
2409;DHT22;8463;48.094;7.970;2023-12-07T11:30:45;7.20;1.00
2409;DHT22;8463;48.094;7.970;2023-12-07T11:33:12;6.10;1.00
2409;DHT22;8463;48.094;7.970;2023-12-07T11:38:29;6.70;1.00
2409;DHT22;8463;48.094;7.970;2023-12-07T11:40:56;7.00;1.00
2409;DHT22;8463;48.094;7.970;2023-12-07T11:43:45;7.00;1.00
2409;DHT22;8463;48.094;7.970;2023-12-07T11:46:12;7.10;1.00
2409;DHT22;8463;48.094;7.970;2023-12-07T11:48:39;7.40;1.00
2409;DHT22;8463;48.094;7.970;2023-12-07T11:51:06;7.70;1.00
2409;DHT22;8463;48.094;7.970;2023-12-07T11:53:37;8.50;1.00
2409;DHT22;8463;48.094;7.970;2023-12-07T11:56:09;7.10;1.00
2409;DHT22;8463;48.094;7.970;2023-12-07T11:58:37;7.00;1.00
2409;DHT22;8463;48.094;7.970;2023-12-07T12:01:03;6.40;1.00
2409;DHT22;8463;48.094;7.970;2023-12-07T12:03:31;6.00;1.00
2409;DHT22;8463;48.094;7.970;2023-12-07T12:06:01;6.00;1.00
2409;DHT22;8463;48.094;7.970;2023-12-07T12:08:27;6.30;1.00
2409;DHT22;8463;48.094;7.970;2023-12-07T12:10:54;6.70;1.00
2409;DHT22;8463;48.094;7.970;2023-12-07T12:13:29;6.60;1.00
2409;DHT22;8463;48.094;7.970;2023-12-07T12:15:57;6.50;1.00
2409;DHT22;8463;48.094;7.970;2023-12-07T12:18:23;6.60;1.00
2409;DHT22;8463;48.094;7.970;2023-12-07T12:20:51;6.30;1.00
2409;DHT22;8463;48.094;7.970;2023-12-07T12:23:16;6.30;1.00
2409;DHT22;8463;48.094;7.970;2023-12-07T12:25:42;6.10;1.00
2409;DHT22;8463;48.094;7.970;2023-12-07T12:28:11;6.10;1.00
2409;DHT22;8463;48.094;7.970;2023-12-07T12:30:39;5.60;1.00
2409;DHT22;8463;48.094;7.970;2023-12-07T12:33:05;5.30;1.00
2409;DHT22;8463;48.094;7.970;2023-12-07T12:35:31;5.50;1.00
2409;DHT22;8463;48.094;7.970;2023-12-07T12:37:57;5.50;1.00
2409;DHT22;8463;48.094;7.970;2023-12-07T12:40:23;5.10;1.00
2409;DHT22;8463;48.094;7.970;2023-12-07T12:42:52;4.90;1.00
2409;DHT22;8463;48.094;7.970;2023-12-07T12:45:19;4.90;1.00
2409;DHT22;8463;48.094;7.970;2023-12-07T12:47:46;6.10;1.00
2409;DHT22;8463;48.094;7.970;2023-12-07T12:53:02;4.70;1.00
2409;DHT22;8463;48.094;7.970;2023-12-07T12:55:31;4.60;1.00
2409;DHT22;8463;48.094;7.970;2023-12-07T12:57:57;5.70;1.00
2409;DHT22;8463;48.094;7.970;2023-12-07T13:00:26;4.40;1.00
2409;DHT22;8463;48.094;7.970;2023-12-07T13:02:52;4.60;1.00
2409;DHT22;8463;48.094;7.970;2023-12-07T13:05:18;4.70;1.00
2409;DHT22;8463;48.094;7.970;2023-12-07T13:07:44;4.70;1.00
2409;DHT22;8463;48.094;7.970;2023-12-07T13:10:10;4.80;1.00
2409;DHT22;8463;48.094;7.970;2023-12-07T13:12:36;4.70;1.00
2409;DHT22;8463;48.094;7.970;2023-12-07T13:15:01;6.00;1.00
2409;DHT22;8463;48.094;7.970;2023-12-07T13:17:27;5.10;1.00
2409;DHT22;8463;48.094;7.970;2023-12-07T13:19:53;5.20;1.00
2409;DHT22;8463;48.094;7.970;2023-12-07T13:22:19;5.20;1.00
2409;DHT22;8463;48.094;7.970;2023-12-07T13:24:47;5.30;1.00
2409;DHT22;8463;48.094;7.970;2023-12-07T13:27:13;5.40;1.00
2409;DHT22;8463;48.094;7.970;2023-12-07T13:29:41;5.30;1.00
2409;DHT22;8463;48.094;7.970;2023-12-07T13:32:06;5.80;1.00
2409;DHT22;8463;48.094;7.970;2023-12-07T13:34:33;5.60;1.00
2409;DHT22;8463;48.094;7.970;2023-12-07T13:36:59;5.60;1.00
2409;DHT22;8463;48.094;7.970;2023-12-07T13:39:24;5.70;1.00
2409;DHT22;8463;48.094;7.970;2023-12-07T13:41:52;5.20;1.00
2409;DHT22;8463;48.094;7.970;2023-12-07T13:44:17;5.40;1.00
2409;DHT22;8463;48.094;7.970;2023-12-07T13:46:44;5.40;1.00
2409;DHT22;8463;48.094;7.970;2023-12-07T13:49:10;5.20;1.00
2409;DHT22;8463;48.094;7.970;2023-12-07T13:51:37;4.90;1.00
2409;DHT22;8463;48.094;7.970;2023-12-07T13:54:03;4.70;1.00
2409;DHT22;8463;48.094;7.970;2023-12-07T13:56:29;4.40;1.00
2409;DHT22;8463;48.094;7.970;2023-12-07T13:58:54;4.20;1.00
2409;DHT22;8463;48.094;7.970;2023-12-07T14:01:20;5.20;1.00
2409;DHT22;8463;48.094;7.970;2023-12-07T14:03:47;4.20;1.00
2409;DHT22;8463;48.094;7.970;2023-12-07T14:06:21;4.40;1.00
2409;DHT22;8463;48.094;7.970;2023-12-07T14:08:48;4.40;1.00
2409;DHT22;8463;48.094;7.970;2023-12-07T14:11:13;4.40;1.00
2409;DHT22;8463;48.094;7.970;2023-12-07T14:13:39;4.40;1.00
2409;DHT22;8463;48.094;7.970;2023-12-07T14:16:05;4.60;1.00
2409;DHT22;8463;48.094;7.970;2023-12-07T14:18:34;4.60;1.00
2409;DHT22;8463;48.094;7.970;2023-12-07T14:21:00;4.60;1.00
2409;DHT22;8463;48.094;7.970;2023-12-07T14:23:25;4.50;1.00
2409;DHT22;8463;48.094;7.970;2023-12-07T14:25:51;4.10;1.00
2409;DHT22;8463;48.094;7.970;2023-12-07T14:28:17;4.10;1.00
2409;DHT22;8463;48.094;7.970;2023-12-07T14:30:43;4.10;1.00
2409;DHT22;8463;48.094;7.970;2023-12-07T14:33:09;4.00;1.00
2409;DHT22;8463;48.094;7.970;2023-12-07T14:35:34;3.90;1.00
2409;DHT22;8463;48.094;7.970;2023-12-07T14:38:00;3.70;1.00
2409;DHT22;8463;48.094;7.970;2023-12-07T14:40:25;3.60;1.00
2409;DHT22;8463;48.094;7.970;2023-12-07T14:42:51;3.50;1.00
2409;DHT22;8463;48.094;7.970;2023-12-07T14:45:17;3.40;1.00
2409;DHT22;8463;48.094;7.970;2023-12-07T14:47:48;3.20;1.00
2409;DHT22;8463;48.094;7.970;2023-12-07T14:50:14;3.20;1.00
2409;DHT22;8463;48.094;7.970;2023-12-07T14:52:42;3.00;1.00
2409;DHT22;8463;48.094;7.970;2023-12-07T14:55:08;2.90;1.00
2409;DHT22;8463;48.094;7.970;2023-12-07T14:57:34;3.00;1.00
2409;DHT22;8463;48.094;7.970;2023-12-07T15:00:00;2.80;1.00
2409;DHT22;8463;48.094;7.970;2023-12-07T15:02:25;2.80;1.00
2409;DHT22;8463;48.094;7.970;2023-12-07T15:04:51;2.60;1.00
2409;DHT22;8463;48.094;7.970;2023-12-07T15:07:17;2.70;1.00
2409;DHT22;8463;48.094;7.970;2023-12-07T15:09:42;2.70;1.00
2409;DHT22;8463;48.094;7.970;2023-12-07T15:12:08;2.60;1.00
2409;DHT22;8463;48.094;7.970;2023-12-07T15:14:34;2.70;1.00
2409;DHT22;8463;48.094;7.970;2023-12-07T15:16:59;2.70;1.00
2409;DHT22;8463;48.094;7.970;2023-12-07T15:19:25;2.70;1.00
2409;DHT22;8463;48.094;7.970;2023-12-07T15:21:51;2.70;1.00
2409;DHT22;8463;48.094;7.970;2023-12-07T15:24:17;2.70;1.00
2409;DHT22;8463;48.094;7.970;2023-12-07T15:26:43;2.70;1.00
2409;DHT22;8463;48.094;7.970;2023-12-07T15:29:13;2.60;1.00
2409;DHT22;8463;48.094;7.970;2023-12-07T15:31:39;2.70;1.00
2409;DHT22;8463;48.094;7.970;2023-12-07T15:34:04;2.60;1.00
2409;DHT22;8463;48.094;7.970;2023-12-07T15:36:30;2.60;1.00
2409;DHT22;8463;48.094;7.970;2023-12-07T15:38:56;2.60;1.00
2409;DHT22;8463;48.094;7.970;2023-12-07T15:41:22;2.60;1.00
2409;DHT22;8463;48.094;7.970;2023-12-07T15:43:50;2.60;1.00
2409;DHT22;8463;48.094;7.970;2023-12-07T15:46:18;2.60;1.00
2409;DHT22;8463;48.094;7.970;2023-12-07T15:48:43;2.50;1.00
2409;DHT22;8463;48.094;7.970;2023-12-07T15:51:12;2.40;1.00
2409;DHT22;8463;48.094;7.970;2023-12-07T15:53:40;2.20;1.00
2409;DHT22;8463;48.094;7.970;2023-12-07T15:56:07;2.10;1.00
2409;DHT22;8463;48.094;7.970;2023-12-07T15:58:32;2.10;1.00
2409;DHT22;8463;48.094;7.970;2023-12-07T16:00:58;2.00;1.00
2409;DHT22;8463;48.094;7.970;2023-12-07T16:03:24;2.10;1.00
2409;DHT22;8463;48.094;7.970;2023-12-07T16:05:51;2.10;1.00
2409;DHT22;8463;48.094;7.970;2023-12-07T16:08:17;2.00;1.00
2409;DHT22;8463;48.094;7.970;2023-12-07T16:10:42;2.00;1.00
2409;DHT22;8463;48.094;7.970;2023-12-07T16:13:08;2.00;1.00
2409;DHT22;8463;48.094;7.970;2023-12-07T16:15:34;2.00;1.00
2409;DHT22;8463;48.094;7.970;2023-12-07T16:18:00;1.90;1.00
2409;DHT22;8463;48.094;7.970;2023-12-07T16:20:25;2.00;1.00
2409;DHT22;8463;48.094;7.970;2023-12-07T16:22:51;2.10;1.00
2409;DHT22;8463;48.094;7.970;2023-12-07T16:25:16;2.10;1.00
2409;DHT22;8463;48.094;7.970;2023-12-07T16:27:42;2.10;1.00
2409;DHT22;8463;48.094;7.970;2023-12-07T16:30:09;2.30;1.00
2409;DHT22;8463;48.094;7.970;2023-12-07T16:32:39;2.20;1.00
2409;DHT22;8463;48.094;7.970;2023-12-07T16:35:05;2.10;1.00
2409;DHT22;8463;48.094;7.970;2023-12-07T16:37:32;2.10;1.00
2409;DHT22;8463;48.094;7.970;2023-12-07T16:39:58;1.90;1.00
2409;DHT22;8463;48.094;7.970;2023-12-07T16:42:24;1.80;1.00
2409;DHT22;8463;48.094;7.970;2023-12-07T16:44:52;1.70;1.00